createdAt,value
2022-12-19T00:00:17.823Z,23.20
2022-12-19T00:02:45.620Z,23.20
2022-12-19T00:05:15.649Z,23.10
2022-12-19T00:07:43.279Z,23.10
2022-12-19T00:10:12.640Z,23.10
2022-12-19T00:12:40.370Z,23.10
2022-12-19T00:15:08.974Z,23.10
2022-12-19T00:17:37.993Z,23.10
2022-12-19T00:20:06.559Z,23.10
2022-12-19T00:22:34.237Z,23.10
2022-12-19T00:25:01.929Z,23.10
2022-12-19T00:27:34.592Z,23.00
2022-12-19T00:30:02.249Z,23.00
2022-12-19T00:32:29.882Z,23.00
2022-12-19T00:34:58.906Z,23.00
2022-12-19T00:37:29.042Z,23.00
2022-12-19T00:39:56.674Z,23.00
2022-12-19T00:42:24.516Z,23.00
2022-12-19T00:44:52.255Z,22.90
2022-12-19T00:47:19.919Z,22.90
2022-12-19T00:49:47.574Z,22.90
2022-12-19T00:52:18.501Z,22.90
2022-12-19T00:54:46.231Z,22.90
2022-12-19T00:57:14.005Z,22.90
2022-12-19T00:59:41.641Z,22.90
2022-12-19T01:02:09.387Z,22.80
2022-12-19T01:04:41.557Z,22.80
2022-12-19T01:07:10.568Z,22.80
2022-12-19T01:09:39.865Z,22.80
2022-12-19T01:12:25.723Z,22.80
2022-12-19T01:14:54.364Z,22.80
2022-12-19T01:17:24.100Z,22.80
2022-12-19T01:19:51.725Z,22.70
2022-12-19T01:22:19.377Z,22.70
2022-12-19T01:24:48.566Z,22.70
2022-12-19T01:27:16.207Z,22.70
2022-12-19T01:29:52.512Z,22.70
2022-12-19T01:32:21.233Z,22.70
2022-12-19T01:34:48.939Z,22.70
2022-12-19T01:37:16.606Z,22.60
2022-12-19T01:39:44.302Z,22.60
2022-12-19T01:42:17.689Z,22.60
2022-12-19T01:45:14.856Z,22.60
2022-12-19T01:47:48.333Z,22.60
2022-12-19T01:50:24.522Z,22.60
2022-12-19T01:52:53.063Z,22.50
2022-12-19T01:55:21.498Z,22.50
2022-12-19T01:57:50.592Z,22.50
2022-12-19T02:00:18.426Z,22.50
2022-12-19T02:02:53.984Z,22.50
2022-12-19T02:05:21.840Z,22.50
2022-12-19T02:07:51.110Z,22.50
2022-12-19T02:10:18.877Z,22.40
2022-12-19T02:12:47.278Z,22.40
2022-12-19T02:15:17.709Z,22.40
2022-12-19T02:18:00.575Z,22.40
2022-12-19T02:21:11.041Z,22.40
2022-12-19T02:24:02.821Z,22.40
2022-12-19T02:26:57.835Z,22.40
2022-12-19T02:29:41.333Z,22.30
2022-12-19T02:32:19.402Z,22.30
2022-12-19T02:34:54.752Z,22.30
2022-12-19T02:37:26.066Z,22.30
2022-12-19T02:39:59.822Z,22.30
2022-12-19T02:42:31.741Z,22.30
2022-12-19T02:45:01.748Z,22.30
2022-12-19T02:47:33.271Z,22.20
2022-12-19T02:50:01.052Z,22.20
2022-12-19T02:52:46.784Z,22.20
2022-12-19T02:55:19.034Z,22.20
2022-12-19T02:58:01.695Z,22.20
2022-12-19T03:00:29.775Z,22.20
2022-12-19T03:03:08.583Z,22.20
2022-12-19T03:05:46.229Z,22.20
2022-12-19T03:08:27.280Z,22.20
2022-12-19T03:11:00.299Z,22.10
2022-12-19T03:13:32.921Z,22.10
2022-12-19T03:16:02.173Z,22.10
2022-12-19T03:18:33.115Z,22.10
2022-12-19T03:21:07.968Z,22.10
2022-12-19T03:23:36.156Z,22.10
2022-12-19T03:26:07.631Z,22.10
2022-12-19T03:28:41.353Z,22.10
2022-12-19T03:31:11.951Z,22.10
2022-12-19T03:33:43.019Z,22.10
2022-12-19T03:36:15.676Z,22.10
2022-12-19T03:38:46.496Z,22.00
2022-12-19T03:41:16.853Z,22.00
2022-12-19T03:43:45.277Z,22.00
2022-12-19T03:46:19.937Z,22.00
2022-12-19T03:48:51.025Z,22.00
2022-12-19T03:51:27.658Z,22.00
2022-12-19T03:54:02.070Z,22.00
2022-12-19T03:56:35.858Z,22.00
2022-12-19T03:59:08.469Z,22.00
2022-12-19T04:01:37.436Z,22.00
2022-12-19T04:04:07.650Z,21.90
2022-12-19T04:06:36.437Z,21.90
2022-12-19T04:09:04.753Z,21.90
2022-12-19T04:11:39.195Z,21.90
2022-12-19T04:14:11.534Z,21.90
2022-12-19T04:16:44.104Z,21.90
2022-12-19T04:19:19.148Z,21.80
2022-12-19T04:21:52.961Z,21.80
2022-12-19T04:24:27.539Z,21.80
2022-12-19T04:26:58.187Z,21.80
2022-12-19T04:29:29.575Z,21.80
2022-12-19T04:31:57.574Z,21.80
2022-12-19T04:34:26.584Z,21.80
2022-12-19T04:36:54.284Z,21.80
2022-12-19T04:39:21.961Z,21.80
2022-12-19T04:41:49.979Z,21.80
2022-12-19T04:44:17.823Z,21.80
2022-12-19T04:46:45.591Z,21.80
2022-12-19T04:49:13.267Z,21.80
2022-12-19T04:51:42.361Z,21.80
2022-12-19T04:54:10.037Z,21.80
2022-12-19T04:56:37.743Z,21.80
2022-12-19T04:59:05.447Z,21.80
2022-12-19T05:01:33.210Z,21.80
2022-12-19T05:04:04.375Z,21.80
2022-12-19T05:06:32.663Z,21.80
2022-12-19T05:09:01.731Z,21.80
2022-12-19T05:11:29.427Z,21.80
2022-12-19T05:13:57.135Z,21.80
2022-12-19T05:16:24.901Z,21.80
2022-12-19T05:18:54.755Z,21.80
2022-12-19T05:21:23.435Z,21.80
2022-12-19T05:23:51.693Z,21.80
2022-12-19T05:26:20.851Z,21.80
2022-12-19T05:28:48.851Z,21.80
2022-12-19T05:31:19.818Z,21.80
2022-12-19T05:33:48.674Z,21.80
2022-12-19T05:36:17.951Z,21.80
2022-12-19T05:38:45.674Z,21.80
2022-12-19T05:41:16.717Z,21.80
2022-12-19T05:43:46.682Z,21.80
2022-12-19T05:46:14.396Z,21.80
2022-12-19T05:48:42.225Z,21.90
2022-12-19T05:51:10.392Z,21.90
2022-12-19T05:53:38.677Z,21.90
2022-12-19T05:56:08.657Z,21.90
2022-12-19T05:58:37.429Z,21.90
2022-12-19T06:01:08.932Z,21.90
2022-12-19T06:03:36.891Z,21.90
2022-12-19T06:06:06.083Z,21.90
2022-12-19T06:08:34.249Z,21.90
2022-12-19T06:11:02.773Z,21.90
2022-12-19T06:13:31.228Z,21.90
2022-12-19T06:15:59.918Z,21.90
2022-12-19T06:18:29.397Z,21.90
2022-12-19T06:21:01.012Z,21.90
2022-12-19T06:23:30.339Z,21.90
2022-12-19T06:25:58.545Z,21.90
2022-12-19T06:28:26.944Z,22.00
2022-12-19T06:30:56.725Z,22.00
2022-12-19T06:33:24.540Z,22.00
2022-12-19T06:36:00.053Z,22.00
2022-12-19T06:38:28.352Z,22.00
2022-12-19T06:41:13.801Z,22.00
2022-12-19T06:43:41.949Z,22.00
2022-12-19T06:46:10.598Z,22.00
2022-12-19T06:48:38.384Z,22.00
2022-12-19T06:51:07.937Z,22.00
2022-12-19T06:53:35.650Z,22.00
2022-12-19T06:56:04.481Z,22.00
2022-12-19T06:58:32.281Z,22.00
2022-12-19T07:00:59.996Z,22.10
2022-12-19T07:03:31.614Z,22.10
2022-12-19T07:05:59.305Z,22.10
2022-12-19T07:08:29.562Z,22.10
2022-12-19T07:10:57.476Z,22.10
2022-12-19T07:13:25.371Z,22.10
2022-12-19T07:15:53.807Z,22.10
2022-12-19T07:18:21.792Z,22.10
2022-12-19T07:20:49.507Z,22.10
2022-12-19T07:23:20.544Z,22.10
2022-12-19T07:25:49.675Z,22.10
2022-12-19T07:28:17.856Z,22.10
2022-12-19T07:30:45.887Z,22.10
2022-12-19T07:33:19.740Z,22.10
2022-12-19T07:35:49.041Z,22.20
2022-12-19T07:38:16.961Z,22.20
2022-12-19T07:40:44.704Z,22.20
2022-12-19T07:43:13.809Z,22.20
2022-12-19T07:45:41.558Z,22.20
2022-12-19T07:48:10.080Z,22.20
2022-12-19T07:50:37.949Z,22.20
2022-12-19T07:53:05.589Z,22.20
2022-12-19T07:55:33.610Z,22.20
2022-12-19T07:58:01.257Z,22.20
2022-12-19T08:00:31.389Z,22.20
2022-12-19T08:02:59.824Z,22.20
2022-12-19T08:05:27.819Z,22.20
2022-12-19T08:07:55.728Z,22.20
2022-12-19T08:10:23.649Z,22.20
2022-12-19T08:12:51.823Z,22.20
2022-12-19T08:15:19.600Z,22.20
2022-12-19T08:17:48.652Z,22.20
2022-12-19T08:20:16.438Z,22.20
2022-12-19T08:22:44.621Z,22.20
2022-12-19T08:25:13.314Z,22.20
2022-12-19T08:27:42.714Z,22.20
2022-12-19T08:30:13.415Z,22.20
2022-12-19T08:32:41.292Z,22.20
2022-12-19T08:35:10.586Z,22.20
2022-12-19T08:37:39.736Z,22.20
2022-12-19T08:40:08.990Z,22.20
2022-12-19T08:42:36.671Z,22.20
2022-12-19T08:45:04.823Z,22.20
2022-12-19T08:47:32.521Z,22.20
2022-12-19T08:50:00.254Z,22.20
2022-12-19T08:52:29.330Z,22.20
2022-12-19T08:54:57.905Z,22.20
2022-12-19T08:57:26.175Z,22.20
2022-12-19T08:59:53.875Z,22.20
2022-12-19T09:02:22.751Z,22.20
2022-12-19T09:06:01.766Z,22.20
2022-12-19T09:07:40.797Z,22.20
2022-12-19T09:10:08.951Z,22.20
2022-12-19T09:12:36.624Z,22.30
2022-12-19T09:15:05.053Z,22.30
2022-12-19T09:17:32.712Z,22.30
2022-12-19T09:20:00.483Z,22.30
2022-12-19T09:22:29.596Z,22.30
2022-12-19T09:24:58.864Z,22.30
2022-12-19T09:27:27.056Z,22.40
2022-12-19T09:29:54.773Z,22.40
2022-12-19T09:32:22.463Z,22.40
2022-12-19T09:34:50.163Z,22.40
2022-12-19T09:37:18.107Z,22.50
2022-12-19T09:39:47.129Z,22.50
2022-12-19T09:42:29.862Z,22.50
2022-12-19T09:45:15.452Z,22.60
2022-12-19T09:47:51.017Z,22.60
2022-12-19T09:50:30.362Z,22.60
2022-12-19T09:53:01.459Z,22.70
2022-12-19T09:55:34.460Z,22.70
2022-12-19T09:58:09.172Z,22.70
2022-12-19T10:00:40.249Z,22.80
2022-12-19T10:03:19.621Z,22.80
2022-12-19T10:07:01.648Z,22.80
2022-12-19T10:08:55.410Z,22.90
2022-12-19T10:12:40.546Z,22.90
2022-12-19T10:14:48.906Z,22.90
2022-12-19T10:17:25.078Z,23.00
2022-12-19T10:20:09.670Z,23.00
2022-12-19T10:22:51.151Z,23.00
2022-12-19T10:25:28.920Z,23.10
2022-12-19T10:28:03.125Z,23.10
2022-12-19T10:30:36.884Z,23.10
2022-12-19T10:33:20.231Z,23.20
2022-12-19T10:35:54.712Z,23.20
2022-12-19T10:38:27.904Z,23.20
2022-12-19T10:41:11.748Z,23.30
2022-12-19T10:43:47.692Z,23.30
2022-12-19T10:46:21.253Z,23.30
2022-12-19T10:48:52.497Z,23.40
2022-12-19T10:51:28.348Z,23.40
2022-12-19T10:53:57.243Z,23.40
2022-12-19T10:56:33.207Z,23.50
2022-12-19T10:59:04.891Z,23.50
2022-12-19T11:01:39.912Z,23.50
2022-12-19T11:04:23.663Z,23.60
2022-12-19T11:06:53.406Z,23.60
2022-12-19T11:09:25.393Z,23.60
2022-12-19T11:15:49.474Z,23.60
2022-12-19T11:19:52.768Z,23.70
2022-12-19T11:26:51.705Z,23.70
2022-12-19T11:29:32.936Z,23.70
2022-12-19T11:29:40.715Z,23.70
2022-12-19T11:29:41.075Z,23.80
2022-12-19T11:29:46.778Z,23.80
2022-12-19T11:34:36.018Z,23.80
2022-12-19T11:37:17.042Z,23.80
2022-12-19T11:39:48.456Z,23.80
2022-12-19T11:42:22.172Z,23.90
2022-12-19T11:44:54.403Z,23.90
2022-12-19T11:47:32.393Z,23.90
2022-12-19T11:50:05.179Z,23.90
2022-12-19T11:55:37.118Z,24.00
2022-12-19T11:58:04.798Z,24.00
2022-12-19T12:00:34.825Z,24.00
2022-12-19T12:03:19.639Z,24.00
2022-12-19T12:05:49.638Z,24.00
2022-12-19T12:10:57.744Z,24.00
2022-12-19T12:16:39.941Z,24.10
2022-12-19T12:25:39.396Z,24.10
2022-12-19T12:31:01.481Z,24.10
2022-12-19T12:31:38.460Z,24.10
2022-12-19T12:31:39.474Z,24.10
2022-12-19T12:31:43.412Z,24.10
2022-12-19T12:31:55.329Z,24.10
2022-12-19T12:35:43.568Z,24.10
2022-12-19T12:38:27.610Z,24.10
2022-12-19T12:41:08.056Z,24.10
2022-12-19T12:44:01.581Z,24.10
2022-12-19T12:46:35.549Z,24.10
2022-12-19T12:49:06.248Z,24.00
2022-12-19T12:51:36.883Z,24.00
2022-12-19T12:54:07.479Z,24.00
2022-12-19T12:56:37.978Z,24.00
2022-12-19T12:59:18.881Z,24.00
2022-12-19T13:01:51.571Z,24.00
2022-12-19T13:04:42.049Z,24.00
2022-12-19T13:07:27.950Z,23.90
2022-12-19T13:10:15.852Z,23.90
2022-12-19T13:13:04.354Z,23.90
2022-12-19T13:15:42.536Z,23.90
2022-12-19T13:18:29.999Z,23.90
2022-12-19T13:20:58.209Z,23.90
2022-12-19T13:23:42.713Z,23.90
2022-12-19T13:26:21.429Z,23.90
2022-12-19T13:28:50.638Z,23.90
2022-12-19T13:31:22.995Z,23.90
2022-12-19T13:34:18.260Z,23.90
2022-12-19T13:39:51.690Z,23.90
2022-12-19T13:40:02.200Z,23.90
2022-12-19T13:42:55.480Z,23.90
2022-12-19T13:45:42.259Z,23.90
2022-12-19T13:48:16.835Z,23.90
2022-12-19T13:50:47.658Z,23.90
2022-12-19T13:53:18.368Z,23.90
2022-12-19T13:55:46.296Z,23.90
2022-12-19T13:58:29.301Z,23.90
2022-12-19T14:01:03.966Z,23.90
2022-12-19T14:03:36.092Z,23.90
2022-12-19T14:06:16.592Z,23.90
2022-12-19T14:08:47.990Z,23.90
2022-12-19T14:12:26.114Z,23.90
2022-12-19T14:14:47.621Z,23.90
2022-12-19T14:17:19.809Z,23.90
2022-12-19T14:19:49.633Z,23.90
2022-12-19T14:22:25.823Z,24.00
2022-12-19T14:24:55.414Z,23.90
2022-12-19T14:28:18.428Z,23.90
2022-12-19T14:30:37.504Z,23.90
2022-12-19T14:33:44.501Z,24.00
2022-12-19T14:36:12.599Z,24.00
2022-12-19T14:39:22.265Z,24.00
2022-12-19T14:42:02.635Z,24.00
2022-12-19T14:52:34.731Z,23.90
2022-12-19T14:54:02.259Z,24.00
2022-12-19T14:54:24.346Z,23.90
2022-12-19T14:54:50.327Z,24.00
2022-12-19T14:58:59.674Z,24.00
2022-12-19T15:01:29.375Z,24.00
2022-12-19T15:04:47.286Z,24.00
2022-12-19T15:07:07.036Z,24.00
2022-12-19T15:11:06.383Z,24.00
2022-12-19T15:14:56.644Z,24.00
2022-12-19T15:15:54.713Z,23.90
2022-12-19T15:18:25.769Z,23.90
2022-12-19T15:20:55.705Z,24.00
2022-12-19T15:23:24.874Z,24.00
2022-12-19T15:26:05.107Z,24.00
2022-12-19T15:28:39.338Z,24.00
2022-12-19T15:31:14.704Z,23.90
2022-12-19T15:34:00.182Z,24.00
2022-12-19T15:36:30.652Z,23.90
2022-12-19T15:38:59.586Z,24.00
2022-12-19T15:41:27.435Z,24.00
2022-12-19T15:44:04.061Z,24.00
2022-12-19T15:46:32.782Z,24.00
2022-12-19T15:49:00.996Z,24.00
2022-12-19T15:51:28.978Z,24.00
2022-12-19T15:54:09.042Z,24.00
2022-12-19T15:56:47.491Z,24.00
2022-12-19T15:59:24.466Z,24.00
2022-12-19T16:01:52.368Z,24.00
2022-12-19T16:04:20.991Z,24.00
2022-12-19T16:06:48.935Z,24.00
2022-12-19T16:09:20.778Z,24.00
2022-12-19T16:11:50.369Z,23.90
2022-12-19T16:14:18.647Z,24.00
2022-12-19T16:16:51.532Z,24.00
2022-12-19T16:19:25.703Z,23.90
2022-12-19T16:21:54.206Z,23.90
2022-12-19T16:24:22.212Z,23.90
2022-12-19T16:26:54.538Z,23.90
2022-12-19T16:29:25.131Z,23.90
2022-12-19T16:31:53.051Z,23.90
2022-12-19T16:34:25.084Z,23.90
2022-12-19T16:36:53.090Z,24.00
2022-12-19T16:39:20.829Z,23.90
2022-12-19T16:41:48.818Z,23.90
2022-12-19T16:44:20.088Z,23.90
2022-12-19T16:46:50.955Z,23.90
2022-12-19T16:49:22.786Z,23.90
2022-12-19T16:51:50.900Z,23.90
2022-12-19T16:54:20.053Z,23.90
2022-12-19T16:56:49.730Z,23.90
2022-12-19T16:59:20.932Z,23.90
2022-12-19T17:01:49.641Z,23.90
2022-12-19T17:04:22.502Z,23.90
2022-12-19T17:06:53.063Z,23.90
2022-12-19T17:09:23.211Z,23.90
2022-12-19T17:11:54.605Z,23.80
2022-12-19T17:14:26.887Z,23.80
2022-12-19T17:16:55.810Z,23.80
2022-12-19T17:19:26.992Z,23.80
2022-12-19T17:21:54.732Z,23.80
2022-12-19T17:24:22.396Z,23.80
2022-12-19T17:26:50.238Z,23.80
2022-12-19T17:29:17.928Z,23.80
2022-12-19T17:31:47.161Z,23.80
2022-12-19T17:34:19.068Z,23.70
2022-12-19T17:36:47.114Z,23.70
2022-12-19T17:39:20.614Z,23.70
2022-12-19T17:41:48.637Z,23.70
2022-12-19T17:44:16.495Z,23.70
2022-12-19T17:46:44.802Z,23.70
2022-12-19T17:49:18.257Z,23.60
2022-12-19T17:51:52.185Z,23.60
2022-12-19T17:54:20.581Z,23.60
2022-12-19T17:56:48.393Z,23.60
2022-12-19T17:59:16.390Z,23.60
2022-12-19T18:01:46.542Z,23.60
2022-12-19T18:04:17.832Z,23.60
2022-12-19T18:06:46.001Z,23.60
2022-12-19T18:09:19.764Z,23.60
2022-12-19T18:11:47.987Z,23.60
2022-12-19T18:14:16.184Z,23.60
2022-12-19T18:16:44.994Z,23.60
2022-12-19T18:19:19.125Z,23.60
2022-12-19T18:21:47.258Z,23.50
2022-12-19T18:24:16.352Z,23.50
2022-12-19T18:26:44.461Z,23.50
2022-12-19T18:29:12.491Z,23.50
2022-12-19T18:31:48.178Z,23.50
2022-12-19T18:34:23.758Z,23.50
2022-12-19T18:36:52.576Z,23.50
2022-12-19T18:39:21.563Z,23.50
2022-12-19T18:41:50.011Z,23.50
2022-12-19T18:44:18.544Z,23.50
2022-12-19T18:46:47.034Z,23.50
2022-12-19T18:49:16.776Z,23.50
2022-12-19T18:51:46.310Z,23.50
2022-12-19T18:54:14.942Z,23.50
2022-12-19T18:56:42.677Z,23.50
2022-12-19T18:59:11.069Z,23.50
2022-12-19T19:01:42.461Z,23.50
2022-12-19T19:04:13.303Z,23.50
2022-12-19T19:06:48.578Z,23.50
2022-12-19T19:09:20.345Z,23.50
2022-12-19T19:11:48.329Z,23.50
2022-12-19T19:14:16.049Z,23.50
2022-12-19T19:16:43.917Z,23.50
2022-12-19T19:19:15.425Z,23.50
2022-12-19T19:21:43.344Z,23.50
2022-12-19T19:24:14.389Z,23.50
2022-12-19T19:26:43.409Z,23.50
2022-12-19T19:29:13.489Z,23.50
2022-12-19T19:31:45.030Z,23.50
2022-12-19T19:34:15.951Z,23.50
2022-12-19T19:36:49.386Z,23.50
2022-12-19T19:39:19.680Z,23.50
2022-12-19T19:41:48.888Z,23.50
2022-12-19T19:44:16.675Z,23.50
2022-12-19T19:46:44.736Z,23.50
2022-12-19T19:49:12.621Z,23.50
2022-12-19T19:51:40.415Z,23.60
2022-12-19T19:54:08.167Z,23.60
2022-12-19T19:56:35.870Z,23.50
2022-12-19T19:59:05.129Z,23.60
2022-12-19T20:01:33.313Z,23.60
2022-12-19T20:04:01.288Z,23.60
2022-12-19T20:06:29.122Z,23.60
2022-12-19T20:08:56.930Z,23.60
2022-12-19T20:11:24.612Z,23.60
2022-12-19T20:13:52.277Z,23.60
2022-12-19T20:16:21.432Z,23.60
2022-12-19T20:18:50.819Z,23.60
2022-12-19T20:21:20.694Z,23.60
2022-12-19T20:23:48.827Z,23.60
2022-12-19T20:26:17.449Z,23.60
2022-12-19T20:28:49.555Z,23.60
2022-12-19T20:31:19.546Z,23.60
2022-12-19T20:33:50.422Z,23.60
2022-12-19T20:36:18.440Z,23.60
2022-12-19T20:38:47.155Z,23.60
2022-12-19T20:41:15.162Z,23.60
2022-12-19T20:43:43.143Z,23.60
2022-12-19T20:46:13.415Z,23.60
2022-12-19T20:48:41.590Z,23.70
2022-12-19T20:51:11.008Z,23.70
2022-12-19T20:53:39.960Z,23.70
2022-12-19T20:56:09.207Z,23.70
2022-12-19T20:58:38.819Z,23.70
2022-12-19T21:01:08.845Z,23.70
2022-12-19T21:03:37.732Z,23.70
2022-12-19T21:06:06.601Z,23.70
2022-12-19T21:08:36.590Z,23.70
2022-12-19T21:11:05.274Z,23.70
2022-12-19T21:13:33.771Z,23.70
2022-12-19T21:16:04.105Z,23.70
2022-12-19T21:18:32.105Z,23.70
2022-12-19T21:20:59.881Z,23.70
2022-12-19T21:23:28.789Z,23.70
2022-12-19T21:26:02.578Z,23.70
2022-12-19T21:28:31.317Z,23.80
2022-12-19T21:31:00.712Z,23.80
2022-12-19T21:33:28.578Z,23.80
2022-12-19T21:35:56.402Z,23.80
2022-12-19T21:38:24.517Z,23.80
2022-12-19T21:40:52.329Z,23.80
2022-12-19T21:43:21.366Z,23.80
2022-12-19T21:45:49.063Z,23.80
2022-12-19T21:48:16.818Z,23.80
2022-12-19T21:50:44.573Z,23.80
2022-12-19T21:53:12.241Z,23.80
2022-12-19T21:55:39.934Z,23.80
2022-12-19T21:58:07.704Z,23.90
2022-12-19T22:00:36.790Z,23.90
2022-12-19T22:03:19.858Z,23.90
2022-12-19T22:05:47.719Z,23.90
2022-12-19T22:08:15.429Z,23.90
2022-12-19T22:10:44.120Z,23.90
2022-12-19T22:13:11.947Z,23.90
2022-12-19T22:15:41.009Z,23.90
2022-12-19T22:18:08.705Z,23.90
2022-12-19T22:20:36.387Z,23.90
2022-12-19T22:23:08.199Z,23.90
2022-12-19T22:25:39.507Z,23.90
2022-12-19T22:28:07.368Z,23.90
2022-12-19T22:30:35.860Z,23.90
2022-12-19T22:33:05.314Z,23.90
2022-12-19T22:35:34.866Z,23.80
2022-12-19T22:38:02.602Z,23.80
2022-12-19T22:40:30.628Z,23.80
2022-12-19T22:42:58.302Z,23.80
2022-12-19T22:45:26.075Z,23.80
2022-12-19T22:47:53.795Z,23.80
2022-12-19T22:50:22.864Z,23.80
2022-12-19T22:52:50.577Z,23.80
2022-12-19T22:55:18.467Z,23.80
2022-12-19T22:57:46.253Z,23.80
2022-12-19T23:00:15.195Z,23.80
2022-12-19T23:02:43.908Z,23.80
2022-12-19T23:05:11.695Z,23.70
2022-12-19T23:07:40.921Z,23.70
2022-12-19T23:10:09.751Z,23.70
2022-12-19T23:12:37.591Z,23.70
2022-12-19T23:15:05.981Z,23.70
2022-12-19T23:17:33.763Z,23.70
2022-12-19T23:20:01.450Z,23.70
2022-12-19T23:22:29.320Z,23.70
2022-12-19T23:24:58.627Z,23.70
2022-12-19T23:27:26.556Z,23.70
2022-12-19T23:29:54.257Z,23.70
2022-12-19T23:32:22.431Z,23.70
2022-12-19T23:34:50.135Z,23.60
2022-12-19T23:37:17.917Z,23.60
2022-12-19T23:39:45.665Z,23.60
2022-12-19T23:42:14.738Z,23.60
2022-12-19T23:44:42.442Z,23.60
2022-12-19T23:47:10.144Z,23.60
2022-12-19T23:49:37.867Z,23.60
2022-12-19T23:52:05.951Z,23.60
2022-12-19T23:54:33.758Z,23.60
2022-12-19T23:57:01.429Z,23.50
2022-12-19T23:59:31.040Z,23.50
